Time;durP1;ratioP1;P1;durP2;ratioP2;P2;SDS_P1;SDS_P2;PMS_P1;PMS_P2;Temp;Humidity;BMP_temperature;BMP_pressure;BME280_temperature;BME280_humidity;BME280_pressure;Samples;Min_cycle;Max_cycle;Signal;HPM_P1;HPM_P2
2023/10/28 00:01:32;;;;;;;9.10;7.60;;;;;;;;;;5075405;28;20949;-81
2023/10/28 00:04:02;;;;;;;13.03;8.33;;;;;;;;;;5075561;28;20462;-81
2023/10/28 00:06:28;;;;;;;12.27;7.70;;;;;;;;;;5074084;28;20451;-81
2023/10/28 00:08:56;;;;;;;9.90;7.53;;;;;;;;;;5076014;28;20437;-82
2023/10/28 00:11:22;;;;;;;17.90;7.10;;;;;;;;;;5075709;28;20442;-81
2023/10/28 00:13:49;;;;;;;11.60;7.93;;;;;;;;;;5075605;28;20467;-81
2023/10/28 00:16:16;;;;;;;10.60;8.13;;;;;;;;;;5075413;28;20506;-82
2023/10/28 00:18:42;;;;;;;10.70;7.47;;;;;;;;;;5074420;28;20447;-81
2023/10/28 00:21:09;;;;;;;12.43;8.40;;;;;;;;;;5075320;28;20980;-81
2023/10/28 00:23:36;;;;;;;10.67;7.97;;;;;;;;;;5074909;28;20467;-81
2023/10/28 00:26:04;;;;;;;8.80;6.80;;;;;;;;;;5075484;28;20446;-81
2023/10/28 00:28:32;;;;;;;13.57;7.50;;;;;;;;;;5074809;28;20463;-82
2023/10/28 00:30:59;;;;;;;14.07;8.13;;;;;;;;;;5074940;28;20454;-81
2023/10/28 00:33:26;;;;;;;10.77;7.30;;;;;;;;;;5075283;28;20463;-82
2023/10/28 00:35:52;;;;;;;12.50;9.07;;;;;;;;;;5074225;28;20471;-81
2023/10/28 00:38:19;;;;;;;11.90;9.00;;;;;;;;;;5073795;28;20528;-81
2023/10/28 00:40:45;;;;;;;10.50;7.30;;;;;;;;;;5075451;28;20439;-82
2023/10/28 00:43:13;;;;;;;8.73;7.37;;;;;;;;;;5075077;28;20846;-82
2023/10/28 00:45:39;;;;;;;11.27;7.60;;;;;;;;;;5075283;28;20427;-82
2023/10/28 00:48:06;;;;;;;10.70;7.77;;;;;;;;;;5072926;28;21008;-83
2023/10/28 00:50:33;;;;;;;12.20;8.70;;;;;;;;;;5075309;28;20797;-82
2023/10/28 00:53:02;;;;;;;9.00;7.50;;;;;;;;;;5074281;28;20467;-82
2023/10/28 00:55:30;;;;;;;10.77;7.37;;;;;;;;;;5073786;28;20479;-82
2023/10/28 00:57:57;;;;;;;10.83;7.57;;;;;;;;;;5074350;28;20471;-82
2023/10/28 01:00:25;;;;;;;11.20;7.43;;;;;;;;;;5074777;28;20938;-82
2023/10/28 01:02:52;;;;;;;13.90;7.57;;;;;;;;;;5074294;28;20466;-82
2023/10/28 01:05:19;;;;;;;9.30;7.20;;;;;;;;;;5073341;28;20470;-82
2023/10/28 01:07:48;;;;;;;10.70;7.47;;;;;;;;;;5074130;28;20467;-82
2023/10/28 01:10:24;;;;;;;13.33;8.80;;;;;;;;;;5074390;28;20546;-81
2023/10/28 01:12:51;;;;;;;10.90;8.17;;;;;;;;;;5073738;28;20466;-82
2023/10/28 01:15:17;;;;;;;9.43;7.40;;;;;;;;;;5072933;28;20459;-81
2023/10/28 01:17:45;;;;;;;15.50;8.30;;;;;;;;;;5074198;28;20494;-82
2023/10/28 01:20:12;;;;;;;8.60;7.53;;;;;;;;;;5074958;28;20435;-82
2023/10/28 01:22:39;;;;;;;11.90;6.73;;;;;;;;;;5074087;28;20477;-82
2023/10/28 01:25:06;;;;;;;12.73;7.70;;;;;;;;;;5073123;28;20459;-82
2023/10/28 01:27:33;;;;;;;11.97;7.90;;;;;;;;;;5073925;28;20478;-82
2023/10/28 01:30:01;;;;;;;10.83;8.20;;;;;;;;;;5074843;28;20443;-83
2023/10/28 01:32:27;;;;;;;10.90;7.73;;;;;;;;;;5074010;28;20507;-82
2023/10/28 01:34:54;;;;;;;12.70;8.47;;;;;;;;;;5074667;28;20463;-82
2023/10/28 01:37:21;;;;;;;12.00;8.57;;;;;;;;;;5073985;28;20470;-80
2023/10/28 01:39:50;;;;;;;12.00;8.57;;;;;;;;;;5074561;28;20487;-82
2023/10/28 01:42:16;;;;;;;11.50;8.53;;;;;;;;;;5073865;28;20471;-80
2023/10/28 01:44:43;;;;;;;11.77;8.93;;;;;;;;;;5056220;28;20509;-82
2023/10/28 01:47:09;;;;;;;12.77;9.57;;;;;;;;;;5073607;28;20508;-82
2023/10/28 01:49:36;;;;;;;13.10;9.37;;;;;;;;;;5074074;28;20429;-82
2023/10/28 01:52:03;;;;;;;13.67;9.97;;;;;;;;;;5073847;28;20482;-82
2023/10/28 01:54:29;;;;;;;16.40;10.30;;;;;;;;;;5073952;28;20459;-82
2023/10/28 01:56:57;;;;;;;13.20;9.40;;;;;;;;;;5073405;28;20470;-81
2023/10/28 01:59:25;;;;;;;14.80;9.70;;;;;;;;;;5072591;28;20492;-82
2023/10/28 02:01:51;;;;;;;13.77;10.17;;;;;;;;;;5072051;28;20474;-81
2023/10/28 02:04:18;;;;;;;17.50;10.37;;;;;;;;;;5074196;28;20466;-81
2023/10/28 02:06:45;;;;;;;13.03;9.60;;;;;;;;;;5073497;28;20462;-82
2023/10/28 02:09:12;;;;;;;13.70;9.93;;;;;;;;;;5077736;28;20859;-81
2023/10/28 02:11:39;;;;;;;13.20;10.33;;;;;;;;;;5077940;28;20528;-81
2023/10/28 02:14:08;;;;;;;13.80;10.63;;;;;;;;;;5077571;28;20512;-81
2023/10/28 02:16:36;;;;;;;17.73;11.33;;;;;;;;;;5077350;28;20458;-82
2023/10/28 02:19:03;;;;;;;16.73;11.27;;;;;;;;;;5077832;28;20836;-81
2023/10/28 02:21:29;;;;;;;17.93;10.67;;;;;;;;;;5077471;28;20541;-82
2023/10/28 02:23:56;;;;;;;16.27;10.87;;;;;;;;;;5077234;28;20463;-82
2023/10/28 02:26:22;;;;;;;18.30;12.23;;;;;;;;;;5077444;28;20441;-81
2023/10/28 02:28:48;;;;;;;17.20;11.23;;;;;;;;;;5076140;28;20496;-82
2023/10/28 02:31:16;;;;;;;16.07;10.90;;;;;;;;;;5076653;28;20439;-81
2023/10/28 02:33:42;;;;;;;16.63;11.97;;;;;;;;;;5077541;28;20459;-81
2023/10/28 02:36:09;;;;;;;20.23;11.80;;;;;;;;;;5077353;28;20474;-82
2023/10/28 02:38:35;;;;;;;17.83;12.43;;;;;;;;;;5077141;28;20463;-82
2023/10/28 02:41:02;;;;;;;15.20;11.87;;;;;;;;;;5080217;28;20450;-87
2023/10/28 02:43:28;;;;;;;17.33;10.10;;;;;;;;;;5077566;28;20475;-82
2023/10/28 02:45:55;;;;;;;15.80;11.20;;;;;;;;;;5076668;28;20435;-82
2023/10/28 02:48:22;;;;;;;16.10;11.33;;;;;;;;;;5076715;28;20478;-82
2023/10/28 02:50:49;;;;;;;16.60;11.50;;;;;;;;;;5077209;28;20447;-82
2023/10/28 02:53:15;;;;;;;14.07;10.33;;;;;;;;;;5076217;28;21110;-82
2023/10/28 02:55:41;;;;;;;16.13;12.33;;;;;;;;;;5077320;28;20450;-82
2023/10/28 02:58:08;;;;;;;17.00;11.93;;;;;;;;;;5076980;28;20436;-82
2023/10/28 03:00:35;;;;;;;15.93;11.33;;;;;;;;;;5076121;28;20931;-82
2023/10/28 03:03:02;;;;;;;17.73;11.50;;;;;;;;;;5076328;28;20449;-82
2023/10/28 03:05:30;;;;;;;15.30;11.37;;;;;;;;;;5077198;28;20470;-82
2023/10/28 03:07:57;;;;;;;20.27;12.70;;;;;;;;;;5076867;28;20524;-82
2023/10/28 03:10:23;;;;;;;16.60;12.30;;;;;;;;;;5075751;28;20784;-82
2023/10/28 03:12:49;;;;;;;20.30;12.60;;;;;;;;;;5074928;28;20467;-82
2023/10/28 03:15:16;;;;;;;17.33;11.90;;;;;;;;;;5077329;28;20458;-82
2023/10/28 03:17:42;;;;;;;21.23;12.03;;;;;;;;;;5076001;28;20466;-82
2023/10/28 03:20:11;;;;;;;17.83;13.00;;;;;;;;;;5075600;28;20454;-82
2023/10/28 03:22:39;;;;;;;23.73;13.37;;;;;;;;;;5076414;28;20481;-82
2023/10/28 03:25:05;;;;;;;22.33;13.80;;;;;;;;;;5076821;28;20462;-82
2023/10/28 03:27:32;;;;;;;19.53;13.30;;;;;;;;;;5075863;28;20475;-82
2023/10/28 03:29:58;;;;;;;18.33;13.00;;;;;;;;;;5075170;28;20446;-82
2023/10/28 03:32:24;;;;;;;20.80;13.63;;;;;;;;;;5076197;28;20467;-82
2023/10/28 03:34:51;;;;;;;21.57;12.73;;;;;;;;;;5076145;28;20455;-80
2023/10/28 03:37:17;;;;;;;23.50;13.57;;;;;;;;;;5076034;28;20467;-80
2023/10/28 03:39:45;;;;;;;24.60;14.37;;;;;;;;;;5075034;28;20439;-80
2023/10/28 03:42:11;;;;;;;24.07;13.20;;;;;;;;;;5075905;28;21034;-81
2023/10/28 03:44:38;;;;;;;21.17;12.67;;;;;;;;;;5076159;28;20968;-82
2023/10/28 03:47:04;;;;;;;24.27;14.23;;;;;;;;;;5075346;28;20544;-83
2023/10/28 03:49:31;;;;;;;23.47;15.27;;;;;;;;;;5075830;28;20451;-82
2023/10/28 03:51:58;;;;;;;26.27;14.83;;;;;;;;;;5075451;28;20470;-82
2023/10/28 03:54:25;;;;;;;25.77;15.30;;;;;;;;;;5057761;28;20976;-82
2023/10/28 03:56:52;;;;;;;22.87;14.40;;;;;;;;;;5075560;28;20823;-82
2023/10/28 03:59:20;;;;;;;25.07;14.33;;;;;;;;;;5076615;28;20442;-80
2023/10/28 04:01:46;;;;;;;20.40;13.70;;;;;;;;;;5076166;28;20829;-82
2023/10/28 04:04:12;;;;;;;21.07;14.47;;;;;;;;;;5075910;28;20426;-82
2023/10/28 04:06:40;;;;;;;21.30;12.70;;;;;;;;;;5075157;28;20463;-82
2023/10/28 04:09:07;;;;;;;27.30;15.67;;;;;;;;;;5076115;28;20928;-82
2023/10/28 04:11:33;;;;;;;25.20;17.07;;;;;;;;;;5075299;28;20966;-82
2023/10/28 04:14:02;;;;;;;21.20;14.87;;;;;;;;;;5075377;28;20458;-82
2023/10/28 04:16:29;;;;;;;24.10;15.13;;;;;;;;;;5074436;28;20466;-80
2023/10/28 04:18:56;;;;;;;29.30;16.13;;;;;;;;;;5074921;28;20493;-83
2023/10/28 04:21:22;;;;;;;28.73;14.93;;;;;;;;;;5075255;28;20447;-83
2023/10/28 04:23:48;;;;;;;22.80;13.70;;;;;;;;;;5075765;28;20459;-82
2023/10/28 04:26:15;;;;;;;22.90;14.80;;;;;;;;;;5075445;28;20477;-82
2023/10/28 04:28:41;;;;;;;23.00;13.37;;;;;;;;;;5075197;28;20442;-83
2023/10/28 04:31:10;;;;;;;19.50;12.67;;;;;;;;;;5074995;28;20439;-82
2023/10/28 04:33:36;;;;;;;18.13;12.33;;;;;;;;;;5074566;28;20935;-80
2023/10/28 04:36:03;;;;;;;18.60;12.63;;;;;;;;;;5075660;28;20778;-82
2023/10/28 04:38:30;;;;;;;18.57;12.07;;;;;;;;;;5074339;28;20478;-83
2023/10/28 04:40:57;;;;;;;24.53;12.10;;;;;;;;;;5074384;28;20439;-82
2023/10/28 04:43:23;;;;;;;26.37;13.83;;;;;;;;;;5074681;28;20471;-82
2023/10/28 04:45:51;;;;;;;21.00;13.30;;;;;;;;;;5073936;28;20443;-82
2023/10/28 04:48:21;;;;;;;25.80;15.37;;;;;;;;;;5074686;28;21000;-82
2023/10/28 04:50:48;;;;;;;23.87;14.43;;;;;;;;;;5075143;28;20435;-82
2023/10/28 04:53:14;;;;;;;28.20;17.77;;;;;;;;;;5074293;28;20474;-82
2023/10/28 04:55:43;;;;;;;26.07;15.70;;;;;;;;;;5075150;28;20450;-82
2023/10/28 04:58:10;;;;;;;25.77;16.27;;;;;;;;;;5074242;28;20467;-82
2023/10/28 05:00:37;;;;;;;33.40;16.30;;;;;;;;;;5074569;28;20435;-80
2023/10/28 05:03:04;;;;;;;23.90;16.50;;;;;;;;;;5074300;28;20475;-81
2023/10/28 05:05:31;;;;;;;27.97;15.57;;;;;;;;;;5075183;28;20459;-82
2023/10/28 05:07:58;;;;;;;28.53;15.40;;;;;;;;;;5074681;28;21009;-81
2023/10/28 05:10:26;;;;;;;25.57;15.43;;;;;;;;;;5073568;28;20485;-81
2023/10/28 05:12:52;;;;;;;24.57;14.43;;;;;;;;;;5056023;28;20455;-81
2023/10/28 05:15:19;;;;;;;23.73;14.23;;;;;;;;;;5074808;28;20455;-82
2023/10/28 05:17:45;;;;;;;29.17;17.57;;;;;;;;;;5073425;28;20551;-83
2023/10/28 05:20:12;;;;;;;32.00;17.10;;;;;;;;;;5074131;28;20442;-82
2023/10/28 05:22:41;;;;;;;30.10;16.57;;;;;;;;;;5073958;28;20854;-82
2023/10/28 05:25:08;;;;;;;27.53;16.27;;;;;;;;;;5074751;28;20488;-82
2023/10/28 05:27:34;;;;;;;29.87;16.87;;;;;;;;;;5074225;28;20501;-84
2023/10/28 05:30:01;;;;;;;37.17;19.17;;;;;;;;;;5074674;28;20418;-82
2023/10/28 05:32:27;;;;;;;34.07;17.57;;;;;;;;;;5074335;28;20562;-82
2023/10/28 05:34:53;;;;;;;33.80;17.23;;;;;;;;;;5074831;28;20828;-82
2023/10/28 05:37:20;;;;;;;35.80;17.50;;;;;;;;;;5073104;28;20497;-82
2023/10/28 05:39:48;;;;;;;37.83;18.67;;;;;;;;;;5073597;28;20434;-82
2023/10/28 05:42:15;;;;;;;40.33;17.30;;;;;;;;;;5074171;28;20475;-82
2023/10/28 05:44:42;;;;;;;40.93;18.10;;;;;;;;;;5078415;28;20463;-82
2023/10/28 05:47:08;;;;;;;32.77;16.70;;;;;;;;;;5076753;28;20473;-83
2023/10/28 05:49:34;;;;;;;37.20;17.57;;;;;;;;;;5078387;28;20453;-81
2023/10/28 05:52:01;;;;;;;37.30;18.30;;;;;;;;;;5078382;28;20479;-82
2023/10/28 05:54:27;;;;;;;38.43;17.53;;;;;;;;;;5078049;28;20470;-80
2023/10/28 05:56:55;;;;;;;39.73;17.63;;;;;;;;;;5077794;28;20474;-82
2023/10/28 05:59:21;;;;;;;35.40;18.83;;;;;;;;;;5079773;28;20500;-81
2023/10/28 06:01:48;;;;;;;44.80;20.23;;;;;;;;;;5076167;28;20508;-81
2023/10/28 06:04:14;;;;;;;41.97;18.97;;;;;;;;;;5078023;28;20459;-81
2023/10/28 06:06:40;;;;;;;37.03;17.20;;;;;;;;;;5078398;28;20462;-82
2023/10/28 06:09:09;;;;;;;34.00;17.20;;;;;;;;;;5077837;28;20445;-81
2023/10/28 06:11:36;;;;;;;42.10;18.50;;;;;;;;;;5077830;28;20482;-81
2023/10/28 06:14:04;;;;;;;40.90;18.30;;;;;;;;;;5078536;28;20909;-81
2023/10/28 06:16:31;;;;;;;35.37;17.73;;;;;;;;;;5078176;28;20443;-81
2023/10/28 06:18:57;;;;;;;46.07;20.13;;;;;;;;;;5078461;28;20573;-81
2023/10/28 06:21:24;;;;;;;43.00;18.40;;;;;;;;;;5078004;28;20530;-81
2023/10/28 06:23:50;;;;;;;38.23;18.47;;;;;;;;;;5078334;28;20467;-81
2023/10/28 06:26:17;;;;;;;45.70;19.87;;;;;;;;;;5077375;28;20439;-81
2023/10/28 06:28:45;;;;;;;45.87;20.37;;;;;;;;;;5076840;28;20447;-81
2023/10/28 06:31:14;;;;;;;47.03;19.70;;;;;;;;;;5078056;28;20435;-81
2023/10/28 06:33:40;;;;;;;42.40;20.30;;;;;;;;;;5077670;28;20491;-81
2023/10/28 06:36:08;;;;;;;39.43;19.87;;;;;;;;;;5077348;28;20530;-82
2023/10/28 06:38:35;;;;;;;44.40;21.10;;;;;;;;;;5076858;28;20471;-82
2023/10/28 06:41:01;;;;;;;48.77;20.73;;;;;;;;;;5077601;28;20446;-82
2023/10/28 06:43:27;;;;;;;44.93;21.17;;;;;;;;;;5077409;28;21019;-82
2023/10/28 06:45:54;;;;;;;51.27;20.67;;;;;;;;;;5077431;28;20446;-82
2023/10/28 06:48:22;;;;;;;47.17;20.53;;;;;;;;;;5077025;28;20493;-82
2023/10/28 06:50:49;;;;;;;43.37;20.27;;;;;;;;;;5077213;28;20417;-82
2023/10/28 06:53:15;;;;;;;49.70;22.20;;;;;;;;;;5058531;28;20471;-82
2023/10/28 06:55:41;;;;;;;45.43;21.20;;;;;;;;;;5077383;28;20492;-82
2023/10/28 06:58:08;;;;;;;45.87;22.43;;;;;;;;;;5075434;28;20470;-82
2023/10/28 07:00:34;;;;;;;50.73;22.33;;;;;;;;;;5077228;28;20431;-82
2023/10/28 07:03:01;;;;;;;46.43;23.53;;;;;;;;;;5076782;28;20478;-82
2023/10/28 07:05:29;;;;;;;44.67;21.67;;;;;;;;;;5075552;28;20454;-82
2023/10/28 07:07:56;;;;;;;40.63;23.00;;;;;;;;;;5074884;28;20540;-82
2023/10/28 07:10:22;;;;;;;55.40;23.33;;;;;;;;;;5076464;28;20439;-82
2023/10/28 07:12:49;;;;;;;65.27;24.27;;;;;;;;;;5076765;28;20474;-82
2023/10/28 07:15:16;;;;;;;45.50;22.23;;;;;;;;;;5076756;28;20463;-81
2023/10/28 07:17:43;;;;;;;50.07;21.60;;;;;;;;;;5076560;28;20992;-81
2023/10/28 07:20:09;;;;;;;57.60;23.43;;;;;;;;;;5076897;28;20435;-81
2023/10/28 07:22:37;;;;;;;44.53;21.17;;;;;;;;;;5076205;28;20471;-81
2023/10/28 07:25:06;;;;;;;48.43;21.87;;;;;;;;;;5075162;28;20455;-81
2023/10/28 07:27:32;;;;;;;52.33;23.30;;;;;;;;;;5076303;28;20517;-81
2023/10/28 07:29:59;;;;;;;53.53;23.30;;;;;;;;;;5077036;28;20431;-81
2023/10/28 07:32:25;;;;;;;52.63;22.40;;;;;;;;;;5075095;28;20573;-81
2023/10/28 07:34:52;;;;;;;49.47;22.80;;;;;;;;;;5075578;28;20481;-81
2023/10/28 07:37:18;;;;;;;51.10;23.77;;;;;;;;;;5076118;28;21011;-82
2023/10/28 07:39:46;;;;;;;62.50;24.37;;;;;;;;;;5075613;28;20936;-81
2023/10/28 07:42:14;;;;;;;66.00;25.07;;;;;;;;;;5074949;28;20467;-81
2023/10/28 07:44:40;;;;;;;60.03;28.03;;;;;;;;;;5076437;28;20836;-81
2023/10/28 07:47:08;;;;;;;56.70;25.13;;;;;;;;;;5074844;28;20434;-81
2023/10/28 07:49:34;;;;;;;54.33;25.63;;;;;;;;;;5076098;28;20457;-81
2023/10/28 07:52:00;;;;;;;56.03;25.00;;;;;;;;;;5075737;28;20829;-81
2023/10/28 07:54:27;;;;;;;50.80;24.80;;;;;;;;;;5076557;28;20463;-80
2023/10/28 07:56:55;;;;;;;50.60;23.43;;;;;;;;;;5075927;28;20466;-80
2023/10/28 07:59:21;;;;;;;60.67;27.00;;;;;;;;;;5074858;28;20479;-81
2023/10/28 08:01:48;;;;;;;63.00;25.30;;;;;;;;;;5074348;28;21047;-80
2023/10/28 08:04:14;;;;;;;55.60;26.00;;;;;;;;;;5076329;28;20570;-81
2023/10/28 08:06:42;;;;;;;65.80;25.97;;;;;;;;;;5073397;28;20462;-80
2023/10/28 08:09:09;;;;;;;69.93;29.70;;;;;;;;;;5075869;28;20911;-80
2023/10/28 08:11:36;;;;;;;73.43;28.17;;;;;;;;;;5075657;28;20463;-80
2023/10/28 08:14:05;;;;;;;56.17;26.37;;;;;;;;;;5075813;28;20463;-80
2023/10/28 08:16:32;;;;;;;69.70;26.77;;;;;;;;;;5075391;28;25798;-82
2023/10/28 08:18:58;;;;;;;59.73;27.83;;;;;;;;;;5075781;28;20799;-80
2023/10/28 08:21:25;;;;;;;55.07;25.53;;;;;;;;;;5074978;28;20445;-80
2023/10/28 08:23:51;;;;;;;54.57;25.60;;;;;;;;;;5075693;28;20875;-80
2023/10/28 08:26:18;;;;;;;48.03;25.30;;;;;;;;;;5075319;28;20413;-80
2023/10/28 08:28:46;;;;;;;52.67;28.63;;;;;;;;;;5076054;28;20999;-80
2023/10/28 08:31:14;;;;;;;60.83;27.60;;;;;;;;;;5076116;28;20813;-81
2023/10/28 08:33:41;;;;;;;51.10;26.57;;;;;;;;;;5076547;28;20459;-81
2023/10/28 08:36:08;;;;;;;62.17;30.17;;;;;;;;;;5076827;28;20435;-80
2023/10/28 08:38:34;;;;;;;59.47;27.23;;;;;;;;;;5074274;28;21014;-81
2023/10/28 08:41:02;;;;;;;61.37;26.33;;;;;;;;;;5075666;28;20794;-83
2023/10/28 08:43:29;;;;;;;55.57;26.50;;;;;;;;;;5073529;28;20482;-81
2023/10/28 08:45:56;;;;;;;49.50;24.07;;;;;;;;;;5075031;28;20425;-82
2023/10/28 08:48:24;;;;;;;52.20;24.60;;;;;;;;;;5074662;28;20467;-82
2023/10/28 08:50:53;;;;;;;48.53;25.90;;;;;;;;;;5075269;28;20446;-81
2023/10/28 08:53:20;;;;;;;55.57;26.13;;;;;;;;;;5074104;28;20471;-82
2023/10/28 08:55:49;;;;;;;59.40;25.33;;;;;;;;;;5074697;28;20439;-81
2023/10/28 08:58:16;;;;;;;51.70;26.53;;;;;;;;;;5074018;28;20485;-81
2023/10/28 09:00:43;;;;;;;49.80;25.10;;;;;;;;;;5074412;28;20410;-81
2023/10/28 09:03:10;;;;;;;53.60;24.97;;;;;;;;;;5074009;28;20451;-81
2023/10/28 09:05:38;;;;;;;50.43;25.50;;;;;;;;;;5073662;28;20551;-82
2023/10/28 09:08:05;;;;;;;53.40;25.97;;;;;;;;;;5074734;28;20441;-82
2023/10/28 09:10:31;;;;;;;49.17;25.17;;;;;;;;;;5074353;28;20474;-82
2023/10/28 09:12:58;;;;;;;46.17;25.03;;;;;;;;;;5074222;28;20467;-82
2023/10/28 09:15:25;;;;;;;47.73;24.27;;;;;;;;;;5074708;28;20459;-82
2023/10/28 09:17:52;;;;;;;51.47;25.87;;;;;;;;;;5072048;28;20467;-82
2023/10/28 09:20:18;;;;;;;40.10;23.50;;;;;;;;;;5074293;28;20430;-82
2023/10/28 09:22:46;;;;;;;47.93;26.97;;;;;;;;;;5072960;28;20449;-81
2023/10/28 09:25:14;;;;;;;48.07;25.50;;;;;;;;;;5074098;28;20434;-82
2023/10/28 09:27:41;;;;;;;52.20;25.07;;;;;;;;;;5073205;28;20460;-82
2023/10/28 09:30:08;;;;;;;47.03;25.50;;;;;;;;;;5074306;28;20413;-82
2023/10/28 09:32:35;;;;;;;45.13;24.63;;;;;;;;;;5074100;28;20532;-82
2023/10/28 09:35:03;;;;;;;46.23;25.37;;;;;;;;;;5073954;28;20444;-81
2023/10/28 09:37:30;;;;;;;53.43;25.30;;;;;;;;;;5073106;28;20471;-82
2023/10/28 09:39:58;;;;;;;49.57;25.03;;;;;;;;;;5074093;28;20481;-81
2023/10/28 09:42:25;;;;;;;49.13;25.77;;;;;;;;;;5073397;28;20940;-82
2023/10/28 09:44:53;;;;;;;42.90;24.53;;;;;;;;;;5073763;28;20454;-82
2023/10/28 09:47:22;;;;;;;41.60;24.80;;;;;;;;;;5072933;28;20445;-82
2023/10/28 09:49:53;;;;;;;45.87;26.07;;;;;;;;;;5074121;28;20405;-82
2023/10/28 09:52:22;;;;;;;35.00;22.47;;;;;;;;;;5073271;28;21035;-81
2023/10/28 09:54:50;;;;;;;38.23;23.13;;;;;;;;;;5072290;28;20496;-81
2023/10/28 09:57:18;;;;;;;42.17;24.13;;;;;;;;;;5073665;28;20475;-81
2023/10/28 09:59:46;;;;;;;41.43;23.83;;;;;;;;;;5073708;28;20461;-81
2023/10/28 10:02:20;;;;;;;39.83;22.20;;;;;;;;;;5072902;28;20466;-81
2023/10/28 10:04:50;;;;;;;40.17;23.10;;;;;;;;;;5073769;28;20436;-82
2023/10/28 10:07:17;;;;;;;37.67;22.10;;;;;;;;;;5071473;28;20512;-81
2023/10/28 10:09:44;;;;;;;41.00;23.37;;;;;;;;;;5073652;28;20493;-81
2023/10/28 10:12:11;;;;;;;39.80;21.43;;;;;;;;;;5073247;28;20473;-81
2023/10/28 10:14:45;;;;;;;35.30;21.40;;;;;;;;;;5072898;28;20463;-81
2023/10/28 10:17:13;;;;;;;34.30;21.33;;;;;;;;;;5072948;28;20470;-81
2023/10/28 10:19:40;;;;;;;42.23;21.67;;;;;;;;;;5072208;28;20456;-81
2023/10/28 10:22:07;;;;;;;31.93;20.17;;;;;;;;;;5072905;28;20462;-81
2023/10/28 10:24:33;;;;;;;29.70;20.07;;;;;;;;;;5071918;28;20449;-82
2023/10/28 10:27:01;;;;;;;35.13;19.80;;;;;;;;;;5072820;28;20783;-82
2023/10/28 10:29:29;;;;;;;38.37;20.67;;;;;;;;;;5075734;28;20439;-82
2023/10/28 10:31:57;;;;;;;29.90;18.43;;;;;;;;;;5075977;28;20467;-82
2023/10/28 10:34:32;;;;;;;29.77;18.83;;;;;;;;;;5075604;28;20469;-82
2023/10/28 10:36:58;;;;;;;28.70;18.43;;;;;;;;;;5075987;28;20434;-81
2023/10/28 10:39:26;;;;;;;25.17;18.23;;;;;;;;;;5076529;28;20478;-81
2023/10/28 10:41:54;;;;;;;30.20;18.10;;;;;;;;;;5075042;28;20946;-81
2023/10/28 10:44:23;;;;;;;27.33;17.83;;;;;;;;;;5076592;28;20808;-83
2023/10/28 10:46:50;;;;;;;23.77;17.37;;;;;;;;;;5076467;28;20472;-81
2023/10/28 10:49:18;;;;;;;30.90;17.93;;;;;;;;;;5076179;28;20450;-81
2023/10/28 10:51:45;;;;;;;26.77;17.10;;;;;;;;;;5076511;28;20437;-81
2023/10/28 10:54:11;;;;;;;25.93;15.83;;;;;;;;;;5075392;28;20878;-81
2023/10/28 10:56:37;;;;;;;25.10;17.00;;;;;;;;;;5075451;28;20805;-82
2023/10/28 10:59:04;;;;;;;28.10;14.97;;;;;;;;;;5076600;28;20483;-81
2023/10/28 11:01:30;;;;;;;19.10;13.90;;;;;;;;;;5074793;28;20956;-82
2023/10/28 11:03:58;;;;;;;20.87;14.27;;;;;;;;;;5075986;28;20951;-81
2023/10/28 11:06:25;;;;;;;25.23;13.70;;;;;;;;;;5074492;28;20417;-81
2023/10/28 11:08:52;;;;;;;20.43;13.60;;;;;;;;;;5076354;28;20417;-82
2023/10/28 11:11:19;;;;;;;21.20;13.00;;;;;;;;;;5056715;28;20504;-81
2023/10/28 11:13:45;;;;;;;17.70;13.10;;;;;;;;;;5076234;28;20517;-81
2023/10/28 11:16:19;;;;;;;16.67;12.97;;;;;;;;;;5075580;28;20443;-82
2023/10/28 11:18:45;;;;;;;18.40;12.07;;;;;;;;;;5074839;28;21045;-81
2023/10/28 11:21:11;;;;;;;20.30;14.80;;;;;;;;;;5075315;28;20938;-83
2023/10/28 11:23:40;;;;;;;19.40;13.80;;;;;;;;;;5076060;28;20437;-81
2023/10/28 11:26:06;;;;;;;19.03;14.60;;;;;;;;;;5075983;28;20413;-81
2023/10/28 11:28:33;;;;;;;20.20;13.23;;;;;;;;;;5075167;28;21033;-81
2023/10/28 11:31:00;;;;;;;20.93;13.20;;;;;;;;;;5074575;28;20530;-81
2023/10/28 11:33:27;;;;;;;22.87;12.80;;;;;;;;;;5073914;28;20500;-81
2023/10/28 11:35:53;;;;;;;16.10;11.77;;;;;;;;;;5074205;28;20928;-82
2023/10/28 11:38:20;;;;;;;16.63;12.27;;;;;;;;;;5066268;28;20482;-81
2023/10/28 11:40:47;;;;;;;14.40;12.00;;;;;;;;;;5075011;28;20406;-81
2023/10/28 11:43:18;;;;;;;19.43;13.27;;;;;;;;;;5074841;28;20451;-81
2023/10/28 11:45:44;;;;;;;20.77;13.53;;;;;;;;;;5074171;28;20971;-81
2023/10/28 11:48:11;;;;;;;17.47;11.80;;;;;;;;;;5075329;28;20478;-80
2023/10/28 11:50:37;;;;;;;13.67;12.17;;;;;;;;;;5074986;28;20911;-81
2023/10/28 11:53:04;;;;;;;13.97;11.50;;;;;;;;;;5076852;28;20489;-81
2023/10/28 11:55:30;;;;;;;12.03;9.90;;;;;;;;;;5073892;28;20462;-80
2023/10/28 11:57:58;;;;;;;20.37;9.67;;;;;;;;;;5074522;28;21019;-81
2023/10/28 12:00:26;;;;;;;11.33;9.10;;;;;;;;;;5075182;28;20475;-81
2023/10/28 12:02:52;;;;;;;12.40;9.90;;;;;;;;;;5074662;28;20474;-81
2023/10/28 12:05:18;;;;;;;17.40;8.90;;;;;;;;;;5073720;28;20459;-81
2023/10/28 12:07:45;;;;;;;13.23;9.10;;;;;;;;;;5074869;28;21018;-82
2023/10/28 12:10:13;;;;;;;13.57;8.60;;;;;;;;;;5073390;28;20826;-80
2023/10/28 12:12:39;;;;;;;10.90;7.13;;;;;;;;;;5074795;28;20546;-81
2023/10/28 12:15:09;;;;;;;10.30;7.87;;;;;;;;;;5073395;28;20524;-81
2023/10/28 12:17:35;;;;;;;10.20;7.67;;;;;;;;;;5073362;28;20563;-81
2023/10/28 12:20:04;;;;;;;12.33;8.50;;;;;;;;;;5056685;28;20449;-80
2023/10/28 12:22:30;;;;;;;10.13;7.40;;;;;;;;;;5073986;28;20506;-81
2023/10/28 12:24:57;;;;;;;14.47;8.90;;;;;;;;;;5074265;28;20446;-81
2023/10/28 12:27:24;;;;;;;8.50;6.63;;;;;;;;;;5074632;28;20442;-81
2023/10/28 12:29:51;;;;;;;11.70;8.00;;;;;;;;;;5073362;28;20422;-81
2023/10/28 12:32:18;;;;;;;13.83;8.03;;;;;;;;;;5074640;28;20442;-80
2023/10/28 12:34:45;;;;;;;14.30;6.83;;;;;;;;;;5074571;28;20462;-80
2023/10/28 12:37:11;;;;;;;10.53;7.30;;;;;;;;;;5074678;28;20471;-81
2023/10/28 12:39:38;;;;;;;9.10;7.03;;;;;;;;;;5072802;28;20978;-81
2023/10/28 12:42:04;;;;;;;8.97;6.40;;;;;;;;;;5073653;28;20827;-81
2023/10/28 12:44:30;;;;;;;10.90;8.07;;;;;;;;;;5074488;28;20434;-80
2023/10/28 12:46:57;;;;;;;12.33;8.00;;;;;;;;;;5074382;28;20470;-81
2023/10/28 12:49:25;;;;;;;10.63;7.60;;;;;;;;;;5074898;28;20938;-81
2023/10/28 12:51:53;;;;;;;9.27;8.03;;;;;;;;;;5074855;28;20462;-81
2023/10/28 12:54:19;;;;;;;14.33;9.10;;;;;;;;;;5075028;28;20520;-81
2023/10/28 12:56:45;;;;;;;13.77;7.50;;;;;;;;;;5074376;28;20446;-81
2023/10/28 12:59:12;;;;;;;11.70;8.70;;;;;;;;;;5074517;28;20457;-81
2023/10/28 13:01:38;;;;;;;14.00;8.40;;;;;;;;;;5074913;28;20444;-80
2023/10/28 13:04:07;;;;;;;15.70;7.20;;;;;;;;;;5074615;28;20469;-81
2023/10/28 13:06:36;;;;;;;9.93;8.50;;;;;;;;;;5073025;28;20939;-81
2023/10/28 13:09:05;;;;;;;11.87;7.73;;;;;;;;;;5074746;28;20442;-81
2023/10/28 13:11:31;;;;;;;9.90;7.90;;;;;;;;;;5074349;28;20458;-81
2023/10/28 13:13:58;;;;;;;10.67;7.33;;;;;;;;;;5075049;28;20446;-81
2023/10/28 13:16:24;;;;;;;10.33;9.33;;;;;;;;;;5074239;28;20413;-80
2023/10/28 13:18:51;;;;;;;13.80;8.80;;;;;;;;;;5074953;28;20442;-81
2023/10/28 13:21:17;;;;;;;9.17;7.93;;;;;;;;;;5072465;28;20439;-81
2023/10/28 13:23:45;;;;;;;8.40;7.40;;;;;;;;;;5074236;28;20459;-81
2023/10/28 13:26:12;;;;;;;10.33;7.50;;;;;;;;;;5074664;28;20435;-81
2023/10/28 13:28:38;;;;;;;11.10;7.03;;;;;;;;;;5073789;28;20466;-81
2023/10/28 13:31:05;;;;;;;9.17;6.57;;;;;;;;;;5074429;28;20436;-81
2023/10/28 13:33:32;;;;;;;9.77;7.67;;;;;;;;;;5072233;28;20467;-81
2023/10/28 13:35:58;;;;;;;8.67;6.83;;;;;;;;;;5074228;28;20443;-81
2023/10/28 13:38:25;;;;;;;9.03;6.37;;;;;;;;;;5073841;28;20471;-81
2023/10/28 13:40:53;;;;;;;12.13;7.67;;;;;;;;;;5073536;28;20854;-81
2023/10/28 13:43:20;;;;;;;10.23;6.67;;;;;;;;;;5073495;28;20471;-81
2023/10/28 13:45:46;;;;;;;9.53;7.50;;;;;;;;;;5073772;28;20438;-81
2023/10/28 13:48:14;;;;;;;11.20;7.73;;;;;;;;;;5071889;28;20510;-81
2023/10/28 13:50:41;;;;;;;12.07;7.13;;;;;;;;;;5073811;28;20444;-81
2023/10/28 13:53:10;;;;;;;10.03;7.07;;;;;;;;;;5072357;28;20516;-81
2023/10/28 13:55:37;;;;;;;7.70;6.90;;;;;;;;;;5073770;28;20554;-81
2023/10/28 13:58:05;;;;;;;9.63;7.03;;;;;;;;;;5073120;28;20520;-81
2023/10/28 14:00:31;;;;;;;10.00;7.47;;;;;;;;;;5074676;28;20824;-81
2023/10/28 14:02:57;;;;;;;8.23;6.57;;;;;;;;;;5073544;28;20471;-81
2023/10/28 14:05:24;;;;;;;10.70;7.47;;;;;;;;;;5077538;28;20465;-81
2023/10/28 14:07:50;;;;;;;8.67;6.87;;;;;;;;;;5077333;28;20437;-81
2023/10/28 14:10:17;;;;;;;8.40;7.50;;;;;;;;;;5077958;28;20517;-81
2023/10/28 14:12:44;;;;;;;12.03;9.23;;;;;;;;;;5075669;28;20516;-81
2023/10/28 14:15:12;;;;;;;11.20;7.97;;;;;;;;;;5077341;28;20466;-81
2023/10/28 14:17:38;;;;;;;8.67;7.77;;;;;;;;;;5077277;28;20478;-81
2023/10/28 14:20:07;;;;;;;9.67;8.53;;;;;;;;;;5077638;28;20866;-81